sensor_id;sensor_type;location;lat;lon;timestamp;temperature;humidity
46117;DHT22;32591;48.102;11.772;2022-11-15T00:02:23;4.80;99.90
46117;DHT22;32591;48.102;11.772;2022-11-15T00:04:50;4.80;99.90
46117;DHT22;32591;48.102;11.772;2022-11-15T00:07:18;4.80;99.90
46117;DHT22;32591;48.102;11.772;2022-11-15T00:09:45;4.70;99.90
46117;DHT22;32591;48.102;11.772;2022-11-15T00:12:12;4.80;99.90
46117;DHT22;32591;48.102;11.772;2022-11-15T00:14:39;4.70;99.90
46117;DHT22;32591;48.102;11.772;2022-11-15T00:17:06;4.70;99.90
46117;DHT22;32591;48.102;11.772;2022-11-15T00:19:33;4.70;99.90
46117;DHT22;32591;48.102;11.772;2022-11-15T00:22:00;4.80;99.90
46117;DHT22;32591;48.102;11.772;2022-11-15T00:24:28;4.80;99.90
46117;DHT22;32591;48.102;11.772;2022-11-15T00:26:55;4.70;99.90
46117;DHT22;32591;48.102;11.772;2022-11-15T00:29:22;4.70;99.90
46117;DHT22;32591;48.102;11.772;2022-11-15T00:31:49;4.60;99.90
46117;DHT22;32591;48.102;11.772;2022-11-15T00:34:16;4.60;99.90
46117;DHT22;32591;48.102;11.772;2022-11-15T00:36:43;4.60;99.90
46117;DHT22;32591;48.102;11.772;2022-11-15T00:39:10;4.50;99.90
46117;DHT22;32591;48.102;11.772;2022-11-15T00:41:38;4.50;99.90
46117;DHT22;32591;48.102;11.772;2022-11-15T00:44:05;4.40;99.90
46117;DHT22;32591;48.102;11.772;2022-11-15T00:46:32;4.40;99.90
46117;DHT22;32591;48.102;11.772;2022-11-15T00:48:59;4.30;99.90
46117;DHT22;32591;48.102;11.772;2022-11-15T00:51:26;4.30;99.90
46117;DHT22;32591;48.102;11.772;2022-11-15T00:53:53;4.30;99.90
46117;DHT22;32591;48.102;11.772;2022-11-15T00:56:20;4.30;99.90
46117;DHT22;32591;48.102;11.772;2022-11-15T00:58:48;4.20;99.90
46117;DHT22;32591;48.102;11.772;2022-11-15T01:01:15;4.20;99.90
46117;DHT22;32591;48.102;11.772;2022-11-15T01:03:42;4.20;99.90
46117;DHT22;32591;48.102;11.772;2022-11-15T01:06:09;4.10;99.90
46117;DHT22;32591;48.102;11.772;2022-11-15T01:08:38;4.10;99.90
46117;DHT22;32591;48.102;11.772;2022-11-15T01:11:07;4.10;99.90
46117;DHT22;32591;48.102;11.772;2022-11-15T01:13:37;4.20;99.90
46117;DHT22;32591;48.102;11.772;2022-11-15T01:16:11;4.20;99.90
46117;DHT22;32591;48.102;11.772;2022-11-15T01:18:42;4.10;99.90
46117;DHT22;32591;48.102;11.772;2022-11-15T01:21:12;4.00;99.90
46117;DHT22;32591;48.102;11.772;2022-11-15T01:23:40;4.00;99.90
46117;DHT22;32591;48.102;11.772;2022-11-15T01:26:10;4.00;99.90
46117;DHT22;32591;48.102;11.772;2022-11-15T01:28:40;3.90;99.90
46117;DHT22;32591;48.102;11.772;2022-11-15T01:31:12;3.90;99.90
46117;DHT22;32591;48.102;11.772;2022-11-15T01:33:41;3.90;99.90
46117;DHT22;32591;48.102;11.772;2022-11-15T01:36:11;3.90;99.90
46117;DHT22;32591;48.102;11.772;2022-11-15T01:38:39;3.80;99.90
46117;DHT22;32591;48.102;11.772;2022-11-15T01:41:06;3.80;99.90
46117;DHT22;32591;48.102;11.772;2022-11-15T01:43:35;3.70;99.90
46117;DHT22;32591;48.102;11.772;2022-11-15T01:46:06;3.80;99.90
46117;DHT22;32591;48.102;11.772;2022-11-15T01:48:37;3.70;99.90
46117;DHT22;32591;48.102;11.772;2022-11-15T01:51:07;3.70;99.90
46117;DHT22;32591;48.102;11.772;2022-11-15T01:53:38;3.70;99.90
46117;DHT22;32591;48.102;11.772;2022-11-15T01:56:09;3.60;99.90
46117;DHT22;32591;48.102;11.772;2022-11-15T01:58:38;3.60;99.90
46117;DHT22;32591;48.102;11.772;2022-11-15T02:01:05;3.60;99.90
46117;DHT22;32591;48.102;11.772;2022-11-15T02:03:40;3.60;99.90
46117;DHT22;32591;48.102;11.772;2022-11-15T02:06:12;3.60;99.90
46117;DHT22;32591;48.102;11.772;2022-11-15T02:08:39;3.60;99.90
46117;DHT22;32591;48.102;11.772;2022-11-15T02:11:07;3.60;99.90
46117;DHT22;32591;48.102;11.772;2022-11-15T02:13:35;3.70;99.90
46117;DHT22;32591;48.102;11.772;2022-11-15T02:16:09;3.60;99.90
46117;DHT22;32591;48.102;11.772;2022-11-15T02:18:46;3.60;99.90
46117;DHT22;32591;48.102;11.772;2022-11-15T02:21:24;3.60;99.90
46117;DHT22;32591;48.102;11.772;2022-11-15T02:24:25;3.60;99.90
46117;DHT22;32591;48.102;11.772;2022-11-15T02:27:27;3.50;99.90
46117;DHT22;32591;48.102;11.772;2022-11-15T02:30:34;3.50;99.90
46117;DHT22;32591;48.102;11.772;2022-11-15T02:33:13;3.50;99.90
46117;DHT22;32591;48.102;11.772;2022-11-15T02:35:52;3.40;99.90
46117;DHT22;32591;48.102;11.772;2022-11-15T02:38:31;3.40;99.90
46117;DHT22;32591;48.102;11.772;2022-11-15T02:41:07;3.40;99.90
46117;DHT22;32591;48.102;11.772;2022-11-15T02:43:38;3.40;99.90
46117;DHT22;32591;48.102;11.772;2022-11-15T02:46:31;3.40;99.90
46117;DHT22;32591;48.102;11.772;2022-11-15T02:49:18;3.40;99.90
46117;DHT22;32591;48.102;11.772;2022-11-15T02:51:47;3.40;99.90
46117;DHT22;32591;48.102;11.772;2022-11-15T02:54:20;3.40;99.90
46117;DHT22;32591;48.102;11.772;2022-11-15T02:56:50;3.30;99.90
46117;DHT22;32591;48.102;11.772;2022-11-15T02:59:43;3.30;99.90
46117;DHT22;32591;48.102;11.772;2022-11-15T03:02:33;3.30;99.90
46117;DHT22;32591;48.102;11.772;2022-11-15T03:05:17;3.30;99.90
46117;DHT22;32591;48.102;11.772;2022-11-15T03:07:51;3.20;99.90
46117;DHT22;32591;48.102;11.772;2022-11-15T03:10:25;3.20;99.90
46117;DHT22;32591;48.102;11.772;2022-11-15T03:12:56;3.20;99.90
46117;DHT22;32591;48.102;11.772;2022-11-15T03:15:29;3.20;99.90
46117;DHT22;32591;48.102;11.772;2022-11-15T03:18:01;3.20;99.90
46117;DHT22;32591;48.102;11.772;2022-11-15T03:20:31;3.00;99.90
46117;DHT22;32591;48.102;11.772;2022-11-15T03:23:04;3.00;99.90
46117;DHT22;32591;48.102;11.772;2022-11-15T03:25:34;2.90;99.90
46117;DHT22;32591;48.102;11.772;2022-11-15T03:28:05;3.00;99.90
46117;DHT22;32591;48.102;11.772;2022-11-15T03:30:37;3.10;99.90
46117;DHT22;32591;48.102;11.772;2022-11-15T03:33:08;3.20;99.90
46117;DHT22;32591;48.102;11.772;2022-11-15T03:35:40;3.20;99.90
46117;DHT22;32591;48.102;11.772;2022-11-15T03:38:14;3.20;99.90
46117;DHT22;32591;48.102;11.772;2022-11-15T03:40:47;3.20;99.90
46117;DHT22;32591;48.102;11.772;2022-11-15T03:43:24;3.20;99.90
46117;DHT22;32591;48.102;11.772;2022-11-15T03:45:56;3.20;99.90
46117;DHT22;32591;48.102;11.772;2022-11-15T03:48:30;3.20;99.90
46117;DHT22;32591;48.102;11.772;2022-11-15T03:51:02;3.20;99.90
46117;DHT22;32591;48.102;11.772;2022-11-15T03:53:30;3.20;99.90
46117;DHT22;32591;48.102;11.772;2022-11-15T03:55:57;3.20;99.90
46117;DHT22;32591;48.102;11.772;2022-11-15T03:58:24;3.10;99.90
46117;DHT22;32591;48.102;11.772;2022-11-15T04:00:51;3.10;99.90
46117;DHT22;32591;48.102;11.772;2022-11-15T04:03:18;3.10;99.90
46117;DHT22;32591;48.102;11.772;2022-11-15T04:05:46;3.00;99.90
46117;DHT22;32591;48.102;11.772;2022-11-15T04:08:13;3.00;99.90
46117;DHT22;32591;48.102;11.772;2022-11-15T04:10:40;3.00;99.90
46117;DHT22;32591;48.102;11.772;2022-11-15T04:13:07;2.90;99.90
46117;DHT22;32591;48.102;11.772;2022-11-15T04:15:35;2.90;99.90
46117;DHT22;32591;48.102;11.772;2022-11-15T04:18:02;2.90;99.90
46117;DHT22;32591;48.102;11.772;2022-11-15T04:20:30;2.80;99.90
46117;DHT22;32591;48.102;11.772;2022-11-15T04:23:18;2.90;99.90
46117;DHT22;32591;48.102;11.772;2022-11-15T04:26:05;2.80;99.90
46117;DHT22;32591;48.102;11.772;2022-11-15T04:28:33;2.80;99.90
46117;DHT22;32591;48.102;11.772;2022-11-15T04:31:00;2.80;99.90
46117;DHT22;32591;48.102;11.772;2022-11-15T04:33:27;2.80;99.90
46117;DHT22;32591;48.102;11.772;2022-11-15T04:35:54;2.80;99.90
46117;DHT22;32591;48.102;11.772;2022-11-15T04:38:40;2.80;99.90
46117;DHT22;32591;48.102;11.772;2022-11-15T04:41:07;2.80;99.90
46117;DHT22;32591;48.102;11.772;2022-11-15T04:43:34;2.70;99.90
46117;DHT22;32591;48.102;11.772;2022-11-15T04:46:01;2.70;99.90
46117;DHT22;32591;48.102;11.772;2022-11-15T04:48:28;2.70;99.90
46117;DHT22;32591;48.102;11.772;2022-11-15T04:50:55;2.70;99.90
46117;DHT22;32591;48.102;11.772;2022-11-15T04:53:22;2.70;99.90
46117;DHT22;32591;48.102;11.772;2022-11-15T04:55:50;2.70;99.90
46117;DHT22;32591;48.102;11.772;2022-11-15T04:58:17;2.70;99.90
46117;DHT22;32591;48.102;11.772;2022-11-15T05:00:44;2.70;99.90
46117;DHT22;32591;48.102;11.772;2022-11-15T05:03:11;2.70;99.90
46117;DHT22;32591;48.102;11.772;2022-11-15T05:05:57;2.70;99.90
46117;DHT22;32591;48.102;11.772;2022-11-15T05:08:24;2.70;99.90
46117;DHT22;32591;48.102;11.772;2022-11-15T05:10:53;2.80;99.90
46117;DHT22;32591;48.102;11.772;2022-11-15T05:13:20;2.80;99.90
46117;DHT22;32591;48.102;11.772;2022-11-15T05:15:47;2.80;99.90
46117;DHT22;32591;48.102;11.772;2022-11-15T05:18:14;2.80;99.90
46117;DHT22;32591;48.102;11.772;2022-11-15T05:20:41;2.90;99.90
46117;DHT22;32591;48.102;11.772;2022-11-15T05:23:08;2.90;99.90
46117;DHT22;32591;48.102;11.772;2022-11-15T05:25:36;2.90;99.90
46117;DHT22;32591;48.102;11.772;2022-11-15T05:28:05;3.00;99.90
46117;DHT22;32591;48.102;11.772;2022-11-15T05:30:32;3.10;99.90
46117;DHT22;32591;48.102;11.772;2022-11-15T05:32:58;3.10;99.90
46117;DHT22;32591;48.102;11.772;2022-11-15T05:35:30;3.10;99.90
46117;DHT22;32591;48.102;11.772;2022-11-15T05:37:58;3.20;99.90
46117;DHT22;32591;48.102;11.772;2022-11-15T05:40:25;3.20;99.90
46117;DHT22;32591;48.102;11.772;2022-11-15T05:42:54;3.20;99.90
46117;DHT22;32591;48.102;11.772;2022-11-15T05:45:22;3.20;99.90
46117;DHT22;32591;48.102;11.772;2022-11-15T05:47:50;3.10;99.90
46117;DHT22;32591;48.102;11.772;2022-11-15T05:50:18;3.10;99.90
46117;DHT22;32591;48.102;11.772;2022-11-15T05:52:46;3.00;99.90
46117;DHT22;32591;48.102;11.772;2022-11-15T05:55:14;2.90;99.90
46117;DHT22;32591;48.102;11.772;2022-11-15T05:57:41;2.90;99.90
46117;DHT22;32591;48.102;11.772;2022-11-15T06:00:09;2.90;99.90
46117;DHT22;32591;48.102;11.772;2022-11-15T06:02:38;2.80;99.90
46117;DHT22;32591;48.102;11.772;2022-11-15T06:05:05;2.90;99.90
46117;DHT22;32591;48.102;11.772;2022-11-15T06:07:32;2.80;99.90
46117;DHT22;32591;48.102;11.772;2022-11-15T06:09:59;2.80;99.90
46117;DHT22;32591;48.102;11.772;2022-11-15T06:12:26;2.80;99.90
46117;DHT22;32591;48.102;11.772;2022-11-15T06:14:53;2.80;99.90
46117;DHT22;32591;48.102;11.772;2022-11-15T06:17:20;2.80;99.90
46117;DHT22;32591;48.102;11.772;2022-11-15T06:19:48;2.80;99.90
46117;DHT22;32591;48.102;11.772;2022-11-15T06:22:15;2.90;99.90
46117;DHT22;32591;48.102;11.772;2022-11-15T06:24:42;2.90;99.90
46117;DHT22;32591;48.102;11.772;2022-11-15T06:27:10;2.90;99.90
46117;DHT22;32591;48.102;11.772;2022-11-15T06:29:37;2.90;99.90
46117;DHT22;32591;48.102;11.772;2022-11-15T06:32:05;2.90;99.90
46117;DHT22;32591;48.102;11.772;2022-11-15T06:34:31;2.90;99.90
46117;DHT22;32591;48.102;11.772;2022-11-15T06:37:00;3.00;99.90
46117;DHT22;32591;48.102;11.772;2022-11-15T06:39:26;3.00;99.90
46117;DHT22;32591;48.102;11.772;2022-11-15T06:41:53;3.00;99.90
46117;DHT22;32591;48.102;11.772;2022-11-15T06:44:20;3.00;99.90
46117;DHT22;32591;48.102;11.772;2022-11-15T06:46:47;2.90;99.90
46117;DHT22;32591;48.102;11.772;2022-11-15T06:49:14;2.90;99.90
46117;DHT22;32591;48.102;11.772;2022-11-15T06:51:42;2.90;99.90
46117;DHT22;32591;48.102;11.772;2022-11-15T06:54:10;2.80;99.90
46117;DHT22;32591;48.102;11.772;2022-11-15T06:56:37;2.90;99.90
46117;DHT22;32591;48.102;11.772;2022-11-15T06:59:04;3.00;99.90
46117;DHT22;32591;48.102;11.772;2022-11-15T07:01:31;3.00;99.90
46117;DHT22;32591;48.102;11.772;2022-11-15T07:03:58;3.10;99.90
46117;DHT22;32591;48.102;11.772;2022-11-15T07:06:25;3.20;99.90
46117;DHT22;32591;48.102;11.772;2022-11-15T07:08:52;3.20;99.90
46117;DHT22;32591;48.102;11.772;2022-11-15T07:11:20;3.20;99.90
46117;DHT22;32591;48.102;11.772;2022-11-15T07:13:47;3.30;99.90
46117;DHT22;32591;48.102;11.772;2022-11-15T07:16:14;3.40;99.90
46117;DHT22;32591;48.102;11.772;2022-11-15T07:18:41;3.60;99.90
46117;DHT22;32591;48.102;11.772;2022-11-15T07:21:09;3.70;99.90
46117;DHT22;32591;48.102;11.772;2022-11-15T07:23:37;3.80;99.90
46117;DHT22;32591;48.102;11.772;2022-11-15T07:26:05;3.90;99.90
46117;DHT22;32591;48.102;11.772;2022-11-15T07:28:34;4.10;99.90
46117;DHT22;32591;48.102;11.772;2022-11-15T07:31:02;4.20;99.90
46117;DHT22;32591;48.102;11.772;2022-11-15T07:33:30;4.20;99.90
46117;DHT22;32591;48.102;11.772;2022-11-15T07:35:59;4.40;99.90
46117;DHT22;32591;48.102;11.772;2022-11-15T07:38:27;4.50;99.90
46117;DHT22;32591;48.102;11.772;2022-11-15T07:40:56;4.60;99.90
46117;DHT22;32591;48.102;11.772;2022-11-15T07:43:24;4.70;99.90
46117;DHT22;32591;48.102;11.772;2022-11-15T07:45:54;4.80;99.90
46117;DHT22;32591;48.102;11.772;2022-11-15T07:48:22;4.90;99.90
46117;DHT22;32591;48.102;11.772;2022-11-15T07:50:49;5.00;99.90
46117;DHT22;32591;48.102;11.772;2022-11-15T07:53:16;5.10;99.90
46117;DHT22;32591;48.102;11.772;2022-11-15T07:55:43;5.20;99.90
46117;DHT22;32591;48.102;11.772;2022-11-15T07:58:10;5.30;99.90
46117;DHT22;32591;48.102;11.772;2022-11-15T08:00:38;5.40;99.90
46117;DHT22;32591;48.102;11.772;2022-11-15T08:03:08;5.40;99.90
46117;DHT22;32591;48.102;11.772;2022-11-15T08:05:37;5.50;99.90
46117;DHT22;32591;48.102;11.772;2022-11-15T08:08:05;5.50;99.90
46117;DHT22;32591;48.102;11.772;2022-11-15T08:10:33;5.60;99.90
46117;DHT22;32591;48.102;11.772;2022-11-15T08:13:02;5.60;99.90
46117;DHT22;32591;48.102;11.772;2022-11-15T08:15:32;5.60;99.90
46117;DHT22;32591;48.102;11.772;2022-11-15T08:18:01;5.70;99.90
46117;DHT22;32591;48.102;11.772;2022-11-15T08:20:31;5.80;99.90
46117;DHT22;32591;48.102;11.772;2022-11-15T08:23:01;5.90;99.90
46117;DHT22;32591;48.102;11.772;2022-11-15T08:25:31;6.00;99.90
46117;DHT22;32591;48.102;11.772;2022-11-15T08:28:00;6.00;99.90
46117;DHT22;32591;48.102;11.772;2022-11-15T08:30:28;6.00;99.90
46117;DHT22;32591;48.102;11.772;2022-11-15T08:32:57;6.10;99.90
46117;DHT22;32591;48.102;11.772;2022-11-15T08:35:25;6.20;99.90
46117;DHT22;32591;48.102;11.772;2022-11-15T08:37:54;6.40;99.90
46117;DHT22;32591;48.102;11.772;2022-11-15T08:40:21;6.40;99.90
46117;DHT22;32591;48.102;11.772;2022-11-15T08:42:48;6.40;99.90
46117;DHT22;32591;48.102;11.772;2022-11-15T08:45:15;6.60;99.90
46117;DHT22;32591;48.102;11.772;2022-11-15T08:47:42;6.70;99.90
46117;DHT22;32591;48.102;11.772;2022-11-15T08:50:09;6.80;99.90
46117;DHT22;32591;48.102;11.772;2022-11-15T08:52:36;6.90;99.90
46117;DHT22;32591;48.102;11.772;2022-11-15T08:55:06;7.00;99.90
46117;DHT22;32591;48.102;11.772;2022-11-15T08:57:34;7.10;99.90
46117;DHT22;32591;48.102;11.772;2022-11-15T09:00:01;7.20;99.90
46117;DHT22;32591;48.102;11.772;2022-11-15T09:02:29;7.30;99.90
46117;DHT22;32591;48.102;11.772;2022-11-15T09:04:56;7.50;99.90
46117;DHT22;32591;48.102;11.772;2022-11-15T09:07:24;7.60;99.90
46117;DHT22;32591;48.102;11.772;2022-11-15T09:09:51;7.70;99.90
46117;DHT22;32591;48.102;11.772;2022-11-15T09:12:19;7.90;99.90
46117;DHT22;32591;48.102;11.772;2022-11-15T09:14:46;7.90;99.90
46117;DHT22;32591;48.102;11.772;2022-11-15T09:17:13;8.00;99.90
46117;DHT22;32591;48.102;11.772;2022-11-15T09:19:40;8.20;99.90
46117;DHT22;32591;48.102;11.772;2022-11-15T09:22:08;8.30;99.90
46117;DHT22;32591;48.102;11.772;2022-11-15T09:24:35;8.30;99.90
46117;DHT22;32591;48.102;11.772;2022-11-15T09:27:02;8.40;99.90
46117;DHT22;32591;48.102;11.772;2022-11-15T09:29:31;8.50;99.90
46117;DHT22;32591;48.102;11.772;2022-11-15T09:31:58;8.60;99.90
46117;DHT22;32591;48.102;11.772;2022-11-15T09:34:25;8.70;99.90
46117;DHT22;32591;48.102;11.772;2022-11-15T09:36:52;8.80;99.90
46117;DHT22;32591;48.102;11.772;2022-11-15T09:39:19;9.00;99.90
46117;DHT22;32591;48.102;11.772;2022-11-15T09:42:05;9.10;99.90
46117;DHT22;32591;48.102;11.772;2022-11-15T09:44:56;9.30;99.90
46117;DHT22;32591;48.102;11.772;2022-11-15T09:47:49;9.50;99.90
46117;DHT22;32591;48.102;11.772;2022-11-15T09:50:31;9.60;99.90
46117;DHT22;32591;48.102;11.772;2022-11-15T09:53:00;9.80;99.90
46117;DHT22;32591;48.102;11.772;2022-11-15T09:55:35;10.00;99.90
46117;DHT22;32591;48.102;11.772;2022-11-15T09:58:15;10.00;99.90
46117;DHT22;32591;48.102;11.772;2022-11-15T10:00:48;10.10;99.90
46117;DHT22;32591;48.102;11.772;2022-11-15T10:03:24;10.20;99.90
46117;DHT22;32591;48.102;11.772;2022-11-15T10:05:57;10.20;99.90
46117;DHT22;32591;48.102;11.772;2022-11-15T10:08:45;10.30;99.90
46117;DHT22;32591;48.102;11.772;2022-11-15T10:11:20;10.40;99.90
46117;DHT22;32591;48.102;11.772;2022-11-15T10:13:50;10.50;99.90
46117;DHT22;32591;48.102;11.772;2022-11-15T10:16:42;10.60;99.90
46117;DHT22;32591;48.102;11.772;2022-11-15T10:19:23;10.70;99.90
46117;DHT22;32591;48.102;11.772;2022-11-15T10:22:06;10.80;99.90
46117;DHT22;32591;48.102;11.772;2022-11-15T10:24:43;10.90;99.70
46117;DHT22;32591;48.102;11.772;2022-11-15T10:27:12;10.90;99.90
46117;DHT22;32591;48.102;11.772;2022-11-15T10:29:43;11.00;99.90
46117;DHT22;32591;48.102;11.772;2022-11-15T10:32:13;11.00;99.90
46117;DHT22;32591;48.102;11.772;2022-11-15T10:34:46;11.10;99.40
46117;DHT22;32591;48.102;11.772;2022-11-15T10:37:14;11.20;99.60
46117;DHT22;32591;48.102;11.772;2022-11-15T10:39:41;11.30;99.50
46117;DHT22;32591;48.102;11.772;2022-11-15T10:42:16;11.30;99.60
46117;DHT22;32591;48.102;11.772;2022-11-15T10:44:45;11.30;99.40
46117;DHT22;32591;48.102;11.772;2022-11-15T10:47:30;11.40;99.10
46117;DHT22;32591;48.102;11.772;2022-11-15T10:50:00;11.40;98.70
46117;DHT22;32591;48.102;11.772;2022-11-15T10:52:31;11.50;98.10
46117;DHT22;32591;48.102;11.772;2022-11-15T10:55:05;11.50;98.30
46117;DHT22;32591;48.102;11.772;2022-11-15T10:57:49;11.60;98.10
46117;DHT22;32591;48.102;11.772;2022-11-15T11:00:29;11.70;97.80
46117;DHT22;32591;48.102;11.772;2022-11-15T11:03:00;11.70;97.50
46117;DHT22;32591;48.102;11.772;2022-11-15T11:05:30;11.70;97.60
46117;DHT22;32591;48.102;11.772;2022-11-15T11:08:00;11.80;97.80
46117;DHT22;32591;48.102;11.772;2022-11-15T11:10:30;11.90;98.00
46117;DHT22;32591;48.102;11.772;2022-11-15T11:13:12;12.00;97.60
46117;DHT22;32591;48.102;11.772;2022-11-15T11:15:44;12.10;98.10
46117;DHT22;32591;48.102;11.772;2022-11-15T11:18:18;12.10;97.60
46117;DHT22;32591;48.102;11.772;2022-11-15T11:20:51;12.10;97.60
46117;DHT22;32591;48.102;11.772;2022-11-15T11:23:40;12.20;97.60
46117;DHT22;32591;48.102;11.772;2022-11-15T11:26:27;12.30;96.10
46117;DHT22;32591;48.102;11.772;2022-11-15T11:29:10;12.40;97.10
46117;DHT22;32591;48.102;11.772;2022-11-15T11:31:54;12.40;96.80
46117;DHT22;32591;48.102;11.772;2022-11-15T11:34:37;12.50;96.50
46117;DHT22;32591;48.102;11.772;2022-11-15T11:37:14;12.60;96.30
46117;DHT22;32591;48.102;11.772;2022-11-15T11:39:53;12.60;95.80
46117;DHT22;32591;48.102;11.772;2022-11-15T11:42:32;12.70;95.70
46117;DHT22;32591;48.102;11.772;2022-11-15T11:45:10;12.70;94.80
46117;DHT22;32591;48.102;11.772;2022-11-15T11:47:47;12.70;95.10
46117;DHT22;32591;48.102;11.772;2022-11-15T11:50:19;12.80;95.00
46117;DHT22;32591;48.102;11.772;2022-11-15T11:52:55;12.80;94.20
46117;DHT22;32591;48.102;11.772;2022-11-15T11:55:27;12.80;94.00
46117;DHT22;32591;48.102;11.772;2022-11-15T11:58:04;12.90;94.50
46117;DHT22;32591;48.102;11.772;2022-11-15T12:00:40;12.90;94.40
46117;DHT22;32591;48.102;11.772;2022-11-15T12:03:16;12.90;94.40
46117;DHT22;32591;48.102;11.772;2022-11-15T12:05:50;13.00;94.80
46117;DHT22;32591;48.102;11.772;2022-11-15T12:08:31;13.00;94.40
46117;DHT22;32591;48.102;11.772;2022-11-15T12:11:07;13.10;93.90
46117;DHT22;32591;48.102;11.772;2022-11-15T12:13:38;13.10;93.90
46117;DHT22;32591;48.102;11.772;2022-11-15T12:16:10;13.20;93.90
46117;DHT22;32591;48.102;11.772;2022-11-15T12:18:46;13.30;93.40
46117;DHT22;32591;48.102;11.772;2022-11-15T12:21:23;13.40;93.30
46117;DHT22;32591;48.102;11.772;2022-11-15T12:24:00;13.40;93.30
46117;DHT22;32591;48.102;11.772;2022-11-15T12:26:34;13.60;93.10
46117;DHT22;32591;48.102;11.772;2022-11-15T12:29:10;13.60;93.00
46117;DHT22;32591;48.102;11.772;2022-11-15T12:31:41;13.70;92.80
46117;DHT22;32591;48.102;11.772;2022-11-15T12:34:28;13.80;92.40
46117;DHT22;32591;48.102;11.772;2022-11-15T12:40:20;13.90;92.30
46117;DHT22;32591;48.102;11.772;2022-11-15T12:43:05;13.80;92.30
46117;DHT22;32591;48.102;11.772;2022-11-15T12:45:49;13.90;92.80
46117;DHT22;32591;48.102;11.772;2022-11-15T12:52:05;13.80;92.20
46117;DHT22;32591;48.102;11.772;2022-11-15T12:55:01;13.80;91.90
46117;DHT22;32591;48.102;11.772;2022-11-15T12:57:41;13.70;92.10
46117;DHT22;32591;48.102;11.772;2022-11-15T13:00:37;13.80;92.20
46117;DHT22;32591;48.102;11.772;2022-11-15T13:03:20;13.80;92.10
46117;DHT22;32591;48.102;11.772;2022-11-15T13:06:00;13.90;91.90
46117;DHT22;32591;48.102;11.772;2022-11-15T13:08:49;14.10;91.40
46117;DHT22;32591;48.102;11.772;2022-11-15T13:11:42;14.20;91.50
46117;DHT22;32591;48.102;11.772;2022-11-15T13:14:39;14.30;91.60
46117;DHT22;32591;48.102;11.772;2022-11-15T13:17:37;14.30;91.90
46117;DHT22;32591;48.102;11.772;2022-11-15T13:20:21;14.30;92.00
46117;DHT22;32591;48.102;11.772;2022-11-15T13:22:51;14.40;91.00
46117;DHT22;32591;48.102;11.772;2022-11-15T13:25:33;14.40;91.50
46117;DHT22;32591;48.102;11.772;2022-11-15T13:28:17;14.40;91.20
46117;DHT22;32591;48.102;11.772;2022-11-15T13:30:52;14.30;91.70
46117;DHT22;32591;48.102;11.772;2022-11-15T13:33:23;14.30;91.60
46117;DHT22;32591;48.102;11.772;2022-11-15T13:35:59;14.30;91.70
46117;DHT22;32591;48.102;11.772;2022-11-15T13:38:29;14.30;92.00
46117;DHT22;32591;48.102;11.772;2022-11-15T13:40:59;14.30;91.90
46117;DHT22;32591;48.102;11.772;2022-11-15T13:43:38;14.40;92.80
46117;DHT22;32591;48.102;11.772;2022-11-15T13:46:12;14.50;93.00
46117;DHT22;32591;48.102;11.772;2022-11-15T13:48:40;14.60;92.50
46117;DHT22;32591;48.102;11.772;2022-11-15T13:51:13;14.50;92.40
46117;DHT22;32591;48.102;11.772;2022-11-15T13:53:48;14.70;92.20
46117;DHT22;32591;48.102;11.772;2022-11-15T13:56:19;14.70;92.00
46117;DHT22;32591;48.102;11.772;2022-11-15T13:58:47;14.60;92.00
46117;DHT22;32591;48.102;11.772;2022-11-15T14:01:17;14.40;92.40
46117;DHT22;32591;48.102;11.772;2022-11-15T14:03:54;14.30;92.90
46117;DHT22;32591;48.102;11.772;2022-11-15T14:06:24;14.30;93.40
46117;DHT22;32591;48.102;11.772;2022-11-15T14:09:02;14.30;92.80
46117;DHT22;32591;48.102;11.772;2022-11-15T14:11:33;14.30;93.20
46117;DHT22;32591;48.102;11.772;2022-11-15T14:14:12;14.30;93.50
46117;DHT22;32591;48.102;11.772;2022-11-15T14:16:42;14.10;93.70
46117;DHT22;32591;48.102;11.772;2022-11-15T14:19:12;14.00;94.20
46117;DHT22;32591;48.102;11.772;2022-11-15T14:22:10;13.90;94.00
46117;DHT22;32591;48.102;11.772;2022-11-15T14:24:40;13.80;94.20
46117;DHT22;32591;48.102;11.772;2022-11-15T14:27:22;13.80;94.70
46117;DHT22;32591;48.102;11.772;2022-11-15T14:29:51;13.80;94.70
46117;DHT22;32591;48.102;11.772;2022-11-15T14:32:20;13.90;94.10
46117;DHT22;32591;48.102;11.772;2022-11-15T14:34:48;13.90;94.90
46117;DHT22;32591;48.102;11.772;2022-11-15T14:37:22;13.80;95.20
46117;DHT22;32591;48.102;11.772;2022-11-15T14:39:50;13.60;95.00
46117;DHT22;32591;48.102;11.772;2022-11-15T14:42:17;13.60;95.20
46117;DHT22;32591;48.102;11.772;2022-11-15T14:44:47;13.50;95.80
46117;DHT22;32591;48.102;11.772;2022-11-15T14:47:14;13.40;96.10
46117;DHT22;32591;48.102;11.772;2022-11-15T14:49:42;13.40;96.60
46117;DHT22;32591;48.102;11.772;2022-11-15T14:52:24;13.40;96.80
46117;DHT22;32591;48.102;11.772;2022-11-15T14:54:54;13.30;96.40
46117;DHT22;32591;48.102;11.772;2022-11-15T14:57:23;13.10;97.20
46117;DHT22;32591;48.102;11.772;2022-11-15T14:59:50;13.10;97.90
46117;DHT22;32591;48.102;11.772;2022-11-15T15:02:21;13.10;98.10
46117;DHT22;32591;48.102;11.772;2022-11-15T15:04:50;12.90;98.20
46117;DHT22;32591;48.102;11.772;2022-11-15T15:07:18;12.80;98.50
46117;DHT22;32591;48.102;11.772;2022-11-15T15:09:45;12.70;99.30
46117;DHT22;32591;48.102;11.772;2022-11-15T15:12:16;12.60;99.40
46117;DHT22;32591;48.102;11.772;2022-11-15T15:14:46;12.60;99.90
46117;DHT22;32591;48.102;11.772;2022-11-15T15:17:14;12.50;99.90
46117;DHT22;32591;48.102;11.772;2022-11-15T15:19:42;12.40;99.90
46117;DHT22;32591;48.102;11.772;2022-11-15T15:22:14;12.40;99.90
46117;DHT22;32591;48.102;11.772;2022-11-15T15:24:42;12.30;99.90
46117;DHT22;32591;48.102;11.772;2022-11-15T15:27:09;12.20;99.90
46117;DHT22;32591;48.102;11.772;2022-11-15T15:29:36;12.20;99.90
46117;DHT22;32591;48.102;11.772;2022-11-15T15:32:05;12.20;99.90
46117;DHT22;32591;48.102;11.772;2022-11-15T15:34:32;12.10;99.90
46117;DHT22;32591;48.102;11.772;2022-11-15T15:37:22;12.00;99.90
46117;DHT22;32591;48.102;11.772;2022-11-15T15:39:50;12.00;99.90
46117;DHT22;32591;48.102;11.772;2022-11-15T15:42:18;11.90;99.90
46117;DHT22;32591;48.102;11.772;2022-11-15T15:44:46;11.80;99.90
46117;DHT22;32591;48.102;11.772;2022-11-15T15:47:16;11.70;99.90
46117;DHT22;32591;48.102;11.772;2022-11-15T15:49:44;11.60;99.90
46117;DHT22;32591;48.102;11.772;2022-11-15T15:52:11;11.50;99.90
46117;DHT22;32591;48.102;11.772;2022-11-15T15:54:38;11.40;99.90
46117;DHT22;32591;48.102;11.772;2022-11-15T15:57:06;11.30;99.90
46117;DHT22;32591;48.102;11.772;2022-11-15T15:59:33;11.20;99.90
46117;DHT22;32591;48.102;11.772;2022-11-15T16:02:00;11.20;99.90